createdAt,value
2022-09-16T00:00:58.567Z,0
2022-09-16T00:03:31.035Z,0
2022-09-16T00:06:05.095Z,0
2022-09-16T00:08:38.963Z,0
2022-09-16T00:11:11.225Z,0
2022-09-16T00:13:46.670Z,0
2022-09-16T00:16:30.890Z,0
2022-09-16T00:19:03.810Z,0
2022-09-16T00:21:37.961Z,0
2022-09-16T00:24:10.150Z,0
2022-09-16T00:26:42.342Z,0
2022-09-16T00:29:14.694Z,0
2022-09-16T00:31:47.223Z,0
2022-09-16T00:34:19.848Z,0
2022-09-16T00:36:55.786Z,0
2022-09-16T00:39:29.263Z,0
2022-09-16T00:42:01.455Z,0
2022-09-16T00:44:34.313Z,0
2022-09-16T00:47:08.389Z,0
2022-09-16T00:49:40.950Z,0
2022-09-16T00:52:13.210Z,0
2022-09-16T00:54:45.238Z,0
2022-09-16T00:57:19.144Z,0
2022-09-16T00:59:52.667Z,0
2022-09-16T01:02:24.780Z,0
2022-09-16T01:04:57.080Z,0
2022-09-16T01:07:30.578Z,0
2022-09-16T01:10:04.980Z,0
2022-09-16T01:12:36.681Z,0
2022-09-16T01:15:08.858Z,0
2022-09-16T01:17:44.668Z,0
2022-09-16T01:20:17.261Z,0
2022-09-16T01:22:52.187Z,0
2022-09-16T01:25:24.586Z,0
2022-09-16T01:27:57.062Z,0
2022-09-16T01:30:29.407Z,0
2022-09-16T01:33:01.828Z,0
2022-09-16T01:35:34.289Z,0
2022-09-16T01:38:06.682Z,0
2022-09-16T01:40:39.680Z,0
2022-09-16T01:43:12.498Z,0
2022-09-16T01:45:44.258Z,0
2022-09-16T01:48:16.702Z,0
2022-09-16T01:50:48.756Z,0
2022-09-16T01:53:21.370Z,0
2022-09-16T01:55:54.094Z,0
2022-09-16T01:58:26.950Z,0
2022-09-16T02:00:59.416Z,0
2022-09-16T02:03:31.664Z,0
2022-09-16T02:06:04.257Z,0
2022-09-16T02:08:36.880Z,0
2022-09-16T02:11:09.447Z,0
2022-09-16T02:13:46.901Z,0
2022-09-16T02:16:20.582Z,0
2022-09-16T02:18:53.112Z,0
2022-09-16T02:21:25.099Z,0
2022-09-16T02:23:59.481Z,0
2022-09-16T02:26:34.935Z,0
2022-09-16T02:29:07.379Z,0
2022-09-16T02:31:39.747Z,0
2022-09-16T02:34:13.729Z,0
2022-09-16T02:36:46.318Z,0
2022-09-16T02:39:20.406Z,0
2022-09-16T02:41:53.156Z,0
2022-09-16T02:44:25.911Z,0
2022-09-16T02:47:03.561Z,0
2022-09-16T02:49:36.329Z,0
2022-09-16T02:52:08.683Z,0
2022-09-16T02:54:43.410Z,0
2022-09-16T02:57:17.343Z,0
2022-09-16T02:59:52.788Z,0
2022-09-16T03:02:24.576Z,0
2022-09-16T03:04:59.276Z,0
2022-09-16T03:07:32.844Z,0
2022-09-16T03:10:07.713Z,0
2022-09-16T03:12:40.440Z,0
2022-09-16T03:15:13.147Z,0
2022-09-16T03:17:45.721Z,0
2022-09-16T03:20:20.192Z,0
2022-09-16T03:22:51.392Z,0
2022-09-16T03:25:24.567Z,0
2022-09-16T03:27:57.205Z,1
2022-09-16T03:30:29.803Z,0
2022-09-16T03:33:03.915Z,0
2022-09-16T03:35:38.586Z,0
2022-09-16T03:38:10.425Z,0
2022-09-16T03:40:42.831Z,0
2022-09-16T03:43:16.718Z,4
2022-09-16T03:45:49.175Z,0
2022-09-16T03:48:24.317Z,0
2022-09-16T03:50:55.838Z,0
2022-09-16T03:53:29.211Z,4
2022-09-16T03:56:01.542Z,0
2022-09-16T03:58:34.001Z,4
2022-09-16T04:01:06.368Z,0
2022-09-16T04:03:39.459Z,1
2022-09-16T04:06:16.297Z,0
2022-09-16T04:08:48.729Z,0
2022-09-16T04:11:21.331Z,0
2022-09-16T04:13:54.090Z,0
2022-09-16T04:16:29.739Z,1
2022-09-16T04:19:02.458Z,4
2022-09-16T04:21:36.125Z,0
2022-09-16T04:24:12.786Z,1
2022-09-16T04:26:44.144Z,4
2022-09-16T04:29:18.237Z,3
2022-09-16T04:31:51.058Z,0
2022-09-16T04:34:23.881Z,0
2022-09-16T04:36:56.796Z,4
2022-09-16T04:39:30.759Z,4
2022-09-16T04:42:03.309Z,3
2022-09-16T04:44:36.179Z,4
2022-09-16T04:47:08.756Z,3
2022-09-16T04:49:41.409Z,4
2022-09-16T04:52:14.071Z,4
2022-09-16T04:54:46.739Z,4
2022-09-16T04:57:19.199Z,4
2022-09-16T04:59:51.897Z,4
2022-09-16T05:02:24.633Z,4
2022-09-16T05:05:00.427Z,1
2022-09-16T05:07:33.056Z,4
2022-09-16T05:10:05.885Z,4
2022-09-16T05:12:40.412Z,4
2022-09-16T05:15:13.315Z,4
2022-09-16T05:17:51.104Z,4
2022-09-16T05:20:23.655Z,4
2022-09-16T05:22:58.759Z,4
2022-09-16T05:25:33.523Z,4
2022-09-16T05:28:06.292Z,5
2022-09-16T05:30:39.051Z,8
2022-09-16T05:33:15.748Z,8
2022-09-16T05:35:47.462Z,4
2022-09-16T05:38:20.312Z,8
2022-09-16T05:40:54.140Z,4
2022-09-16T05:43:27.047Z,4
2022-09-16T05:45:59.792Z,15
2022-09-16T05:48:32.581Z,11
2022-09-16T05:51:06.061Z,4
2022-09-16T05:53:39.970Z,4
2022-09-16T05:56:11.584Z,4
2022-09-16T05:58:46.035Z,8
2022-09-16T06:01:20.819Z,5
2022-09-16T06:03:53.539Z,4
2022-09-16T06:06:30.347Z,4
2022-09-16T06:09:01.628Z,4
2022-09-16T06:11:34.323Z,4
2022-09-16T06:14:06.561Z,4
2022-09-16T06:16:38.651Z,4
2022-09-16T06:19:13.051Z,7
2022-09-16T06:21:45.371Z,7
2022-09-16T06:24:18.181Z,4
2022-09-16T06:26:52.221Z,4
2022-09-16T06:29:24.618Z,4
2022-09-16T06:31:57.294Z,4
2022-09-16T06:34:30.176Z,4
2022-09-16T06:37:02.470Z,4
2022-09-16T06:39:35.663Z,4
2022-09-16T06:42:12.323Z,4
2022-09-16T06:44:46.018Z,4
2022-09-16T06:47:18.490Z,4
2022-09-16T06:49:50.475Z,4
2022-09-16T06:52:22.473Z,4
2022-09-16T06:54:54.713Z,4
2022-09-16T06:57:27.387Z,8
2022-09-16T07:00:00.260Z,4
2022-09-16T07:02:32.817Z,6
2022-09-16T07:05:05.040Z,23
2022-09-16T07:07:38.047Z,16
2022-09-16T07:10:11.039Z,24
2022-09-16T07:12:43.645Z,28
2022-09-16T07:15:19.166Z,8
2022-09-16T07:17:50.719Z,12
2022-09-16T07:20:23.157Z,8
2022-09-16T07:22:55.916Z,8
2022-09-16T07:25:31.421Z,4
2022-09-16T07:28:07.465Z,4
2022-09-16T07:30:41.727Z,4
2022-09-16T07:33:17.872Z,4
2022-09-16T07:35:48.737Z,4
2022-09-16T07:38:20.910Z,4
2022-09-16T07:40:52.901Z,4
2022-09-16T07:43:25.116Z,4
2022-09-16T07:45:57.239Z,4
2022-09-16T07:48:33.941Z,0
2022-09-16T07:51:06.563Z,0
2022-09-16T07:53:38.900Z,0
2022-09-16T07:56:13.275Z,4
2022-09-16T07:58:46.088Z,4
2022-09-16T08:01:21.385Z,0
2022-09-16T08:03:53.290Z,8
2022-09-16T08:06:26.032Z,4
2022-09-16T08:09:02.374Z,4
2022-09-16T08:12:23.499Z,4
2022-09-16T08:14:56.221Z,4
2022-09-16T08:17:29.606Z,4
2022-09-16T08:20:04.682Z,4
2022-09-16T08:22:37.688Z,4
2022-09-16T08:25:10.250Z,0
2022-09-16T08:27:44.329Z,4
2022-09-16T08:30:16.562Z,4
2022-09-16T08:32:48.471Z,0
2022-09-16T08:35:20.902Z,3
2022-09-16T08:37:53.118Z,4
2022-09-16T08:40:25.863Z,1
2022-09-16T08:42:59.509Z,4
2022-09-16T08:45:32.469Z,0
2022-09-16T08:48:05.301Z,0
2022-09-16T08:50:37.989Z,0
2022-09-16T08:53:10.619Z,0
2022-09-16T08:55:43.024Z,0
2022-09-16T08:58:16.843Z,0
2022-09-16T09:00:49.640Z,0
2022-09-16T09:03:22.768Z,1
2022-09-16T09:05:56.799Z,0
2022-09-16T09:08:29.783Z,0
2022-09-16T09:11:02.286Z,0
2022-09-16T09:13:36.818Z,0
2022-09-16T09:16:09.584Z,0
2022-09-16T09:18:42.538Z,0
2022-09-16T09:21:14.837Z,0
2022-09-16T09:23:47.533Z,0
2022-09-16T09:26:22.904Z,2
2022-09-16T09:28:55.541Z,0
2022-09-16T09:31:30.405Z,0
2022-09-16T09:34:04.652Z,0
2022-09-16T09:36:37.406Z,0
2022-09-16T09:39:09.823Z,0
2022-09-16T09:41:42.473Z,0
2022-09-16T09:44:16.767Z,0
2022-09-16T09:46:49.917Z,0
2022-09-16T09:49:22.494Z,4
2022-09-16T09:51:56.936Z,0
2022-09-16T09:54:30.206Z,0
2022-09-16T09:57:02.758Z,0
2022-09-16T09:59:37.808Z,1
2022-09-16T10:02:15.265Z,0
2022-09-16T10:04:47.754Z,0
2022-09-16T10:07:19.552Z,4
2022-09-16T10:09:52.243Z,0
2022-09-16T10:12:24.708Z,0
2022-09-16T10:14:57.346Z,4
2022-09-16T10:17:29.647Z,4
2022-09-16T10:20:04.246Z,0
2022-09-16T10:22:37.378Z,0
2022-09-16T10:25:12.460Z,8
2022-09-16T10:27:43.411Z,1
2022-09-16T10:30:16.789Z,4
2022-09-16T10:32:56.602Z,0
2022-09-16T10:35:29.020Z,4
2022-09-16T10:38:01.530Z,4
2022-09-16T10:40:34.462Z,1
2022-09-16T10:43:07.331Z,0
2022-09-16T10:45:42.777Z,4
2022-09-16T10:48:14.763Z,0
2022-09-16T10:50:46.907Z,0
2022-09-16T10:53:19.559Z,0
2022-09-16T10:55:52.247Z,0
2022-09-16T10:58:26.807Z,0
2022-09-16T11:00:59.452Z,2
2022-09-16T11:03:33.757Z,4
2022-09-16T11:06:06.981Z,0
2022-09-16T11:08:39.004Z,0
2022-09-16T11:11:12.483Z,0
2022-09-16T11:13:50.343Z,8
2022-09-16T11:16:22.946Z,0
2022-09-16T11:18:56.688Z,0
2022-09-16T11:21:29.440Z,0
2022-09-16T11:24:02.161Z,0
2022-09-16T11:26:34.803Z,0
2022-09-16T11:29:07.082Z,0
2022-09-16T11:31:39.227Z,0
2022-09-16T11:34:13.757Z,0
2022-09-16T11:36:48.727Z,3
2022-09-16T11:39:24.064Z,0
2022-09-16T11:41:56.863Z,4
2022-09-16T11:44:28.895Z,4
2022-09-16T11:47:01.070Z,4
2022-09-16T11:49:32.935Z,4
2022-09-16T11:52:05.160Z,4
2022-09-16T11:54:37.721Z,4
2022-09-16T11:57:12.010Z,8
2022-09-16T11:59:46.479Z,5
2022-09-16T12:02:19.055Z,8
2022-09-16T12:04:53.463Z,8
2022-09-16T12:07:27.084Z,5
2022-09-16T12:09:59.443Z,4
2022-09-16T12:12:33.144Z,4
2022-09-16T12:15:06.097Z,8
2022-09-16T12:17:39.061Z,8
2022-09-16T12:20:11.647Z,8
2022-09-16T12:22:45.474Z,12
2022-09-16T12:25:18.149Z,8
2022-09-16T12:27:50.692Z,12
2022-09-16T12:30:23.977Z,8
2022-09-16T12:32:56.898Z,12
2022-09-16T12:35:29.677Z,12
2022-09-16T12:38:03.884Z,12
2022-09-16T12:40:37.698Z,18
2022-09-16T12:43:10.195Z,11
2022-09-16T12:45:42.715Z,10
2022-09-16T12:48:15.324Z,12
2022-09-16T12:50:47.984Z,8
2022-09-16T12:53:20.556Z,8
2022-09-16T12:55:53.763Z,8
2022-09-16T12:58:27.523Z,8
2022-09-16T13:01:00.742Z,8
2022-09-16T13:06:08.936Z,8
2022-09-16T13:08:39.990Z,8
2022-09-16T13:11:51.351Z,12
2022-09-16T13:15:14.457Z,8
2022-09-16T13:17:47.216Z,8
2022-09-16T13:20:19.681Z,12
2022-09-16T13:22:53.972Z,12
2022-09-16T13:25:26.411Z,12
2022-09-16T13:27:58.841Z,8
2022-09-16T13:30:32.565Z,12
2022-09-16T13:33:05.479Z,12
2022-09-16T13:35:38.468Z,11
2022-09-16T13:38:12.480Z,8
2022-09-16T13:40:46.515Z,12
2022-09-16T13:43:19.539Z,8
2022-09-16T13:45:51.918Z,12
2022-09-16T13:48:24.771Z,8
2022-09-16T13:50:57.273Z,8
2022-09-16T13:53:30.192Z,8
2022-09-16T13:56:02.883Z,12
2022-09-16T13:58:35.123Z,8
2022-09-16T14:01:09.731Z,12
2022-09-16T14:03:43.722Z,10
2022-09-16T14:06:20.418Z,8
2022-09-16T14:08:52.639Z,16
2022-09-16T14:11:24.936Z,13
2022-09-16T14:14:06.935Z,12
2022-09-16T14:17:17.766Z,12
2022-09-16T14:19:49.074Z,8
2022-09-16T14:22:22.250Z,8
2022-09-16T14:25:00.483Z,16
2022-09-16T14:28:00.231Z,9
2022-09-16T14:30:32.382Z,8
2022-09-16T14:33:05.935Z,8
2022-09-16T14:35:39.215Z,8
2022-09-16T14:38:28.210Z,8
2022-09-16T14:41:38.062Z,7
2022-09-16T14:44:10.492Z,8
2022-09-16T14:46:42.513Z,8
2022-09-16T14:49:14.779Z,8
2022-09-16T14:51:48.626Z,8
2022-09-16T14:54:21.235Z,8
2022-09-16T14:56:53.771Z,12
2022-09-16T14:59:26.369Z,16
2022-09-16T15:01:58.780Z,8
2022-09-16T15:04:31.562Z,8
2022-09-16T15:07:04.420Z,9
2022-09-16T15:09:51.612Z,8
2022-09-16T15:12:23.759Z,8
2022-09-16T15:14:57.579Z,12
2022-09-16T15:17:30.227Z,12
2022-09-16T15:20:06.151Z,8
2022-09-16T15:22:40.051Z,11
2022-09-16T15:25:12.835Z,11
2022-09-16T15:27:45.542Z,12
2022-09-16T15:30:17.900Z,12
2022-09-16T15:32:50.538Z,16
2022-09-16T15:35:25.399Z,17
2022-09-16T15:37:58.012Z,16
2022-09-16T15:40:30.692Z,16
2022-09-16T15:43:05.097Z,14
2022-09-16T15:45:38.702Z,16
2022-09-16T15:48:10.773Z,16
2022-09-16T15:50:42.995Z,16
2022-09-16T15:53:17.151Z,16
2022-09-16T15:55:50.124Z,16
2022-09-16T15:58:22.857Z,12
2022-09-16T16:00:56.638Z,24
2022-09-16T16:03:30.425Z,16
2022-09-16T16:06:02.723Z,16
2022-09-16T16:08:35.298Z,16
2022-09-16T16:11:09.760Z,12
2022-09-16T16:13:44.544Z,12
2022-09-16T16:16:19.205Z,8
2022-09-16T16:18:51.887Z,8
2022-09-16T16:21:26.037Z,8
2022-09-16T16:23:59.251Z,8
2022-09-16T16:26:31.951Z,8
2022-09-16T16:29:05.073Z,8
2022-09-16T16:31:37.836Z,12
2022-09-16T16:34:10.548Z,8
2022-09-16T16:36:43.103Z,8
2022-09-16T16:39:15.686Z,12
2022-09-16T16:41:48.234Z,10
2022-09-16T16:44:19.705Z,20
2022-09-16T16:46:52.280Z,12
2022-09-16T16:49:24.953Z,12
2022-09-16T16:51:57.498Z,12
2022-09-16T16:54:30.366Z,11
2022-09-16T16:57:02.989Z,12
2022-09-16T16:59:35.887Z,15
2022-09-16T17:02:09.189Z,12
2022-09-16T17:04:41.816Z,12
2022-09-16T17:07:25.497Z,12
2022-09-16T17:09:58.853Z,12
2022-09-16T17:12:31.725Z,16
2022-09-16T17:15:06.717Z,24
2022-09-16T17:17:38.863Z,16
2022-09-16T17:20:12.516Z,12
2022-09-16T17:22:45.203Z,12
2022-09-16T17:25:17.606Z,16
2022-09-16T17:27:50.381Z,12
2022-09-16T17:30:23.284Z,15
2022-09-16T17:32:56.034Z,13
2022-09-16T17:35:28.482Z,16
2022-09-16T17:38:04.907Z,12
2022-09-16T17:40:38.183Z,12
2022-09-16T17:43:12.412Z,8
2022-09-16T17:45:45.337Z,16
2022-09-16T17:48:21.251Z,16
2022-09-16T17:51:04.252Z,15
2022-09-16T17:53:38.138Z,9
2022-09-16T17:56:10.169Z,20
2022-09-16T17:58:42.861Z,16
2022-09-16T18:01:16.606Z,16
2022-09-16T18:03:51.904Z,12
2022-09-16T18:06:26.080Z,16
2022-09-16T18:08:58.210Z,12
2022-09-16T18:11:30.896Z,20
2022-09-16T18:14:03.411Z,20
2022-09-16T18:16:35.589Z,16
2022-09-16T18:19:09.603Z,16
2022-09-16T18:21:42.628Z,16
2022-09-16T18:24:15.220Z,16
2022-09-16T18:26:48.635Z,16
2022-09-16T18:29:21.517Z,16
2022-09-16T18:31:54.615Z,16
2022-09-16T18:34:32.765Z,12
2022-09-16T18:37:04.611Z,16
2022-09-16T18:39:38.881Z,16
2022-09-16T18:42:11.371Z,15
2022-09-16T18:44:44.231Z,16
2022-09-16T18:47:17.025Z,12
2022-09-16T18:49:50.882Z,16
2022-09-16T18:52:23.612Z,12
2022-09-16T18:54:58.900Z,12
2022-09-16T18:57:36.931Z,12
2022-09-16T19:00:09.797Z,16
2022-09-16T19:02:42.995Z,15
2022-09-16T19:05:16.648Z,16
2022-09-16T19:07:49.245Z,16
2022-09-16T19:10:21.887Z,16
2022-09-16T19:12:54.773Z,16
2022-09-16T19:15:31.102Z,16
2022-09-16T19:18:05.906Z,12
2022-09-16T19:20:38.662Z,15
2022-09-16T19:23:11.749Z,16
2022-09-16T19:25:44.043Z,16
2022-09-16T19:28:17.689Z,16
2022-09-16T19:30:52.083Z,16
2022-09-16T19:33:25.302Z,13
2022-09-16T19:36:00.334Z,12
2022-09-16T19:38:32.939Z,12
2022-09-16T19:41:05.680Z,12
2022-09-16T19:43:38.060Z,15
2022-09-16T19:46:10.560Z,16
2022-09-16T19:48:44.088Z,12
2022-09-16T19:51:18.143Z,16
2022-09-16T19:53:52.075Z,20
2022-09-16T19:56:25.882Z,8
2022-09-16T19:58:59.395Z,12
2022-09-16T20:01:32.323Z,24
2022-09-16T20:04:05.455Z,12
2022-09-16T20:06:38.127Z,12
2022-09-16T20:09:10.609Z,12
2022-09-16T20:11:44.250Z,12
2022-09-16T20:14:16.766Z,12
2022-09-16T20:16:51.027Z,16
2022-09-16T20:19:26.552Z,19
2022-09-16T20:22:00.325Z,12
2022-09-16T20:24:34.198Z,12
2022-09-16T20:27:10.026Z,16
2022-09-16T20:29:43.040Z,16
2022-09-16T20:32:15.783Z,16
2022-09-16T20:34:48.528Z,16
2022-09-16T20:37:20.959Z,17
2022-09-16T20:39:52.687Z,20
2022-09-16T20:42:25.342Z,17
2022-09-16T20:45:01.821Z,19
2022-09-16T20:47:34.484Z,16
2022-09-16T20:50:10.631Z,16
2022-09-16T20:52:42.296Z,20
2022-09-16T20:55:15.498Z,16
2022-09-16T20:57:51.586Z,18
2022-09-16T21:00:25.792Z,16
2022-09-16T21:02:58.443Z,16
2022-09-16T21:05:33.480Z,16
2022-09-16T21:08:05.794Z,16
2022-09-16T21:10:38.273Z,16
2022-09-16T21:13:13.648Z,20
2022-09-16T21:15:47.512Z,16
2022-09-16T21:18:20.069Z,16
2022-09-16T21:20:57.169Z,16
2022-09-16T21:23:30.160Z,19
2022-09-16T21:26:05.708Z,16
2022-09-16T21:28:38.744Z,16
2022-09-16T21:31:12.153Z,19
2022-09-16T21:33:46.771Z,16
2022-09-16T21:36:19.904Z,16
2022-09-16T21:38:52.517Z,16
2022-09-16T21:41:24.880Z,16
2022-09-16T21:43:56.938Z,16
2022-09-16T21:46:29.731Z,16
2022-09-16T21:49:05.896Z,16
2022-09-16T21:51:39.887Z,16
2022-09-16T21:57:06.612Z,17
2022-09-16T21:59:45.269Z,14
2022-09-16T22:02:17.866Z,16
2022-09-16T22:04:50.940Z,19
2022-09-16T22:07:23.675Z,17
2022-09-16T22:09:55.812Z,16
2022-09-16T22:12:28.242Z,19
2022-09-16T22:15:08.225Z,18
2022-09-16T22:17:51.992Z,16
2022-09-16T22:20:24.380Z,16
2022-09-16T22:23:01.487Z,16
2022-09-16T22:25:33.827Z,18
2022-09-16T22:28:06.501Z,16
2022-09-16T22:30:44.208Z,19
2022-09-16T22:33:18.791Z,16
2022-09-16T22:35:56.379Z,16
2022-09-16T22:38:32.440Z,16
2022-09-16T22:41:04.142Z,16
2022-09-16T22:43:36.580Z,16
2022-09-16T22:46:08.246Z,16
2022-09-16T22:48:41.877Z,16
2022-09-16T22:51:14.162Z,16
2022-09-16T22:53:50.821Z,18
2022-09-16T22:56:23.110Z,16
2022-09-16T22:58:56.307Z,16
2022-09-16T23:01:28.084Z,16
2022-09-16T23:04:01.008Z,16
2022-09-16T23:06:34.972Z,16
2022-09-16T23:09:06.199Z,16
2022-09-16T23:11:38.512Z,19
2022-09-16T23:14:12.002Z,14
2022-09-16T23:16:42.612Z,16
2022-09-16T23:19:14.501Z,16
2022-09-16T23:21:46.764Z,16
2022-09-16T23:24:19.450Z,16
2022-09-16T23:26:51.592Z,16
2022-09-16T23:29:24.173Z,20
2022-09-16T23:31:55.973Z,16
2022-09-16T23:34:27.953Z,19
2022-09-16T23:37:05.163Z,20
2022-09-16T23:39:39.106Z,15
2022-09-16T23:42:13.033Z,19
2022-09-16T23:44:53.358Z,17
2022-09-16T23:47:27.471Z,20
2022-09-16T23:50:03.902Z,20
2022-09-16T23:52:36.961Z,20
2022-09-16T23:55:11.667Z,17
2022-09-16T23:57:44.643Z,20
